Aviation Digital Data Service (ADDS)

Output produced by METARs form (0057 UTC 23 March 2019)
found at http://www.aviationweather.gov/metar/data/
 
METAR text: TBPB 220000Z 09019KT 9999 SCT018 SCT036 26/22 Q1015 NOSIG
Conditions at: TBPB (GRANTLEY ADAMS , BB) observed 0000 UTC 23 March 2019
Temperature: 26.0°C (79°F)
Dewpoint: 22.0°C (72°F) [RH = 79%]
Pressure (altimeter): 29.97 inches Hg (1015.0 mb)
Winds: from the E (90 degrees) at 22 MPH (19 knots; 9.8 m/s)
Visibility: 6 or more miles (10+ km)
Ceiling: at least 12,000 feet AGL
Clouds: scattered clouds at 1800 feet AGL
scattered clouds at 3600 feet AGL
Weather: no significant weather observed at this time

METAR text: TBPB 222300Z 10019KT 9999 FEW018 BKN036 26/21 Q1015 NOSIG
Conditions at: TBPB (GRANTLEY ADAMS , BB) observed 2300 UTC 22 March 2019
Temperature: 26.0°C (79°F)
Dewpoint: 21.0°C (70°F) [RH = 74%]
Pressure (altimeter): 29.97 inches Hg (1015.0 mb)
Winds: from the E (100 degrees) at 22 MPH (19 knots; 9.8 m/s)
Visibility: 6 or more miles (10+ km)
Ceiling: 3600 feet AGL
Clouds: few clouds at 1800 feet AGL
broken clouds at 3600 feet AGL
Weather: no significant weather observed at this time

METAR text: TBPB 222200Z 09019KT 9999 SCT018 BKN036 26/22 Q1014 NOSIG
Conditions at: TBPB (GRANTLEY ADAMS , BB) observed 2200 UTC 22 March 2019
Temperature: 26.0°C (79°F)
Dewpoint: 22.0°C (72°F) [RH = 79%]
Pressure (altimeter): 29.94 inches Hg (1014.0 mb)
Winds: from the E (90 degrees) at 22 MPH (19 knots; 9.8 m/s)
Visibility: 6 or more miles (10+ km)
Ceiling: 3600 feet AGL
Clouds: scattered clouds at 1800 feet AGL
broken clouds at 3600 feet AGL
Weather: no significant weather observed at this time

METAR text: TBPB 222100Z 10018KT 9999 FEW018 BKN036 27/21 Q1014 NOSIG
Conditions at: TBPB (GRANTLEY ADAMS , BB) observed 2100 UTC 22 March 2019
Temperature: 27.0°C (81°F)
Dewpoint: 21.0°C (70°F) [RH = 70%]
Pressure (altimeter): 29.94 inches Hg (1014.0 mb)
Winds: from the E (100 degrees) at 21 MPH (18 knots; 9.3 m/s)
Visibility: 6 or more miles (10+ km)
Ceiling: 3600 feet AGL
Clouds: few clouds at 1800 feet AGL
broken clouds at 3600 feet AGL
Weather: no significant weather observed at this time

METAR text: TBPB 222000Z 09018KT 9999 FEW018 BKN036 28/21 Q1014 NOSIG
Conditions at: TBPB (GRANTLEY ADAMS , BB) observed 2000 UTC 22 March 2019
Temperature: 28.0°C (82°F)
Dewpoint: 21.0°C (70°F) [RH = 66%]
Pressure (altimeter): 29.94 inches Hg (1014.0 mb)
Winds: from the E (90 degrees) at 21 MPH (18 knots; 9.3 m/s)
Visibility: 6 or more miles (10+ km)
Ceiling: 3600 feet AGL
Clouds: few clouds at 1800 feet AGL
broken clouds at 3600 feet AGL
Weather: no significant weather observed at this time

METAR text: TBPB 221900Z 10019KT 9999 FEW018 SCT036 29/21 Q1014 NOSIG
Conditions at: TBPB (GRANTLEY ADAMS , BB) observed 1900 UTC 22 March 2019
Temperature: 29.0°C (84°F)
Dewpoint: 21.0°C (70°F) [RH = 62%]
Pressure (altimeter): 29.94 inches Hg (1014.0 mb)
Winds: from the E (100 degrees) at 22 MPH (19 knots; 9.8 m/s)
Visibility: 6 or more miles (10+ km)
Ceiling: at least 12,000 feet AGL
Clouds: few clouds at 1800 feet AGL
scattered clouds at 3600 feet AGL
Weather: no significant weather observed at this time

METAR text: TBPB 221800Z 10022KT 9999 FEW016 BKN034 28/21 Q1014 NOSIG
Conditions at: TBPB (GRANTLEY ADAMS , BB) observed 1800 UTC 22 March 2019
Temperature: 28.0°C (82°F)
Dewpoint: 21.0°C (70°F) [RH = 66%]
Pressure (altimeter): 29.94 inches Hg (1014.0 mb)
Winds: from the E (100 degrees) at 25 MPH (22 knots; 11.3 m/s)
Visibility: 6 or more miles (10+ km)
Ceiling: 3400 feet AGL
Clouds: few clouds at 1600 feet AGL
broken clouds at 3400 feet AGL
Weather: no significant weather observed at this time

METAR text: TBPB 221700Z 10020KT 9999 FEW012 SCT018 BKN036 29/22 Q1015 NOSIG
Conditions at: TBPB (GRANTLEY ADAMS , BB) observed 1700 UTC 22 March 2019
Temperature: 29.0°C (84°F)
Dewpoint: 22.0°C (72°F) [RH = 66%]
Pressure (altimeter): 29.97 inches Hg (1015.0 mb)
Winds: from the E (100 degrees) at 23 MPH (20 knots; 10.3 m/s)
Visibility: 6 or more miles (10+ km)
Ceiling: 3600 feet AGL
Clouds: few clouds at 1200 feet AGL
scattered clouds at 1800 feet AGL
broken clouds at 3600 feet AGL
Weather: no significant weather observed at this time

METAR text: TBPB 221600Z 10018KT 9999 SCT014 BKN036 27/22 Q1016 NOSIG
Conditions at: TBPB (GRANTLEY ADAMS , BB) observed 1600 UTC 22 March 2019
Temperature: 27.0°C (81°F)
Dewpoint: 22.0°C (72°F) [RH = 74%]
Pressure (altimeter): 30.00 inches Hg (1016.0 mb)
Winds: from the E (100 degrees) at 21 MPH (18 knots; 9.3 m/s)
Visibility: 6 or more miles (10+ km)
Ceiling: 3600 feet AGL
Clouds: scattered clouds at 1400 feet AGL
broken clouds at 3600 feet AGL
Weather: no significant weather observed at this time

METAR text: TBPB 221500Z 09018KT 7000 -SHRA VCSH BKN014 BKN034 26/23 Q1016 NOSIG
Conditions at: TBPB (GRANTLEY ADAMS , BB) observed 1500 UTC 22 March 2019
Temperature: 26.0°C (79°F)
Dewpoint: 23.0°C (73°F) [RH = 84%]
Pressure (altimeter): 30.00 inches Hg (1016.0 mb)
Winds: from the E (90 degrees) at 21 MPH (18 knots; 9.3 m/s)
Visibility: 4 miles ( 7 km)
Ceiling: 1400 feet AGL
Clouds: broken clouds at 1400 feet AGL
broken clouds at 3400 feet AGL
Weather: -SHRA VCSH  (light rain showers, showers in vicinity)

METAR text: TBPB 221400Z 10018KT 9000 -RA VCSH SCT014 BKN034 26/23 Q1016 NOSIG
Conditions at: TBPB (GRANTLEY ADAMS , BB) observed 1400 UTC 22 March 2019
Temperature: 26.0°C (79°F)
Dewpoint: 23.0°C (73°F) [RH = 84%]
Pressure (altimeter): 30.00 inches Hg (1016.0 mb)
Winds: from the E (100 degrees) at 21 MPH (18 knots; 9.3 m/s)
Visibility: 6 miles ( 9 km)
Ceiling: 3400 feet AGL
Clouds: scattered clouds at 1400 feet AGL
broken clouds at 3400 feet AGL
Weather: -RA VCSH  (light rain, showers in vicinity)

METAR text: TBPB 221300Z 08016KT 8000 -RA VCSH SCT012 BKN034 24/21 Q1016 NOSIG
Conditions at: TBPB (GRANTLEY ADAMS , BB) observed 1300 UTC 22 March 2019
Temperature: 24.0°C (75°F)
Dewpoint: 21.0°C (70°F) [RH = 83%]
Pressure (altimeter): 30.00 inches Hg (1016.0 mb)
Winds: from the E (80 degrees) at 18 MPH (16 knots; 8.2 m/s)
Visibility: 5 miles ( 8 km)
Ceiling: 3400 feet AGL
Clouds: scattered clouds at 1200 feet AGL
broken clouds at 3400 feet AGL
Weather: -RA VCSH  (light rain, showers in vicinity)

METAR text: TBPB 221200Z 09017KT 9999 3000S SCT012 BKN034 25/22 Q1016 NOSIG
Conditions at: TBPB (GRANTLEY ADAMS , BB) observed 1200 UTC 22 March 2019
Temperature: 25.0°C (77°F)
Dewpoint: 22.0°C (72°F) [RH = 83%]
Pressure (altimeter): 30.00 inches Hg (1016.0 mb)
Winds: from the E (90 degrees) at 20 MPH (17 knots; 8.7 m/s)
Visibility: 6 or more miles (10+ km)
Ceiling: 3400 feet AGL
Clouds: scattered clouds at 1200 feet AGL
broken clouds at 3400 feet AGL
Weather: no significant weather observed at this time

METAR text: TBPB 221100Z 09015KT 9999 4000SW -SHRA VCSH BKN012 BKN034 25/22 Q1015 NOSIG
Conditions at: TBPB (GRANTLEY ADAMS , BB) observed 1100 UTC 22 March 2019
Temperature: 25.0°C (77°F)
Dewpoint: 22.0°C (72°F) [RH = 83%]
Pressure (altimeter): 29.97 inches Hg (1015.0 mb)
Winds: from the E (90 degrees) at 17 MPH (15 knots; 7.7 m/s)
Visibility: 6 or more miles (10+ km)
Ceiling: 1200 feet AGL
Clouds: broken clouds at 1200 feet AGL
broken clouds at 3400 feet AGL
Weather: VCSH -SHRA  (showers in vicinity, light rain showers)

METAR text: TBPB 221000Z 08015KT 9999 FEW012 BKN034 25/21 Q1014 NOSIG
Conditions at: TBPB (GRANTLEY ADAMS , BB) observed 1000 UTC 22 March 2019
Temperature: 25.0°C (77°F)
Dewpoint: 21.0°C (70°F) [RH = 79%]
Pressure (altimeter): 29.94 inches Hg (1014.0 mb)
Winds: from the E (80 degrees) at 17 MPH (15 knots; 7.7 m/s)
Visibility: 6 or more miles (10+ km)
Ceiling: 3400 feet AGL
Clouds: few clouds at 1200 feet AGL
broken clouds at 3400 feet AGL
Weather: no significant weather observed at this time

METAR text: TBPB 220900Z 09017KT 9999 SCT012 SCT034 25/21 Q1014 NOSIG
Conditions at: TBPB (GRANTLEY ADAMS , BB) observed 0900 UTC 22 March 2019
Temperature: 25.0°C (77°F)
Dewpoint: 21.0°C (70°F) [RH = 79%]
Pressure (altimeter): 29.94 inches Hg (1014.0 mb)
Winds: from the E (90 degrees) at 20 MPH (17 knots; 8.7 m/s)
Visibility: 6 or more miles (10+ km)
Ceiling: at least 12,000 feet AGL
Clouds: scattered clouds at 1200 feet AGL
scattered clouds at 3400 feet AGL
Weather: no significant weather observed at this time

METAR text: TBPB 220800Z 09017KT 9999 SCT016 SCT034 25/21 Q1013 NOSIG
Conditions at: TBPB (GRANTLEY ADAMS , BB) observed 0800 UTC 22 March 2019
Temperature: 25.0°C (77°F)
Dewpoint: 21.0°C (70°F) [RH = 79%]
Pressure (altimeter): 29.91 inches Hg (1013.0 mb)
Winds: from the E (90 degrees) at 20 MPH (17 knots; 8.7 m/s)
Visibility: 6 or more miles (10+ km)
Ceiling: at least 12,000 feet AGL
Clouds: scattered clouds at 1600 feet AGL
scattered clouds at 3400 feet AGL
Weather: no significant weather observed at this time

METAR text: TBPB 220700Z 08015KT 9999 FEW014 BKN034 25/21 Q1013 NOSIG
Conditions at: TBPB (GRANTLEY ADAMS , BB) observed 0700 UTC 22 March 2019
Temperature: 25.0°C (77°F)
Dewpoint: 21.0°C (70°F) [RH = 79%]
Pressure (altimeter): 29.91 inches Hg (1013.0 mb)
Winds: from the E (80 degrees) at 17 MPH (15 knots; 7.7 m/s)
Visibility: 6 or more miles (10+ km)
Ceiling: 3400 feet AGL
Clouds: few clouds at 1400 feet AGL
broken clouds at 3400 feet AGL
Weather: no significant weather observed at this time

METAR text: TBPB 220600Z 09017KT 9999 -RA FEW014 BKN034 25/21 Q1013 NOSIG
Conditions at: TBPB (GRANTLEY ADAMS , BB) observed 0600 UTC 22 March 2019
Temperature: 25.0°C (77°F)
Dewpoint: 21.0°C (70°F) [RH = 79%]
Pressure (altimeter): 29.91 inches Hg (1013.0 mb)
Winds: from the E (90 degrees) at 20 MPH (17 knots; 8.7 m/s)
Visibility: 6 or more miles (10+ km)
Ceiling: 3400 feet AGL
Clouds: few clouds at 1400 feet AGL
broken clouds at 3400 feet AGL
Weather: -RA  (light rain)

METAR text: TBPB 220500Z 09017KT 9999 -RA FEW014 OVC034 24/22 Q1014 NOSIG
Conditions at: TBPB (GRANTLEY ADAMS , BB) observed 0500 UTC 22 March 2019
Temperature: 24.0°C (75°F)
Dewpoint: 22.0°C (72°F) [RH = 89%]
Pressure (altimeter): 29.94 inches Hg (1014.0 mb)
Winds: from the E (90 degrees) at 20 MPH (17 knots; 8.7 m/s)
Visibility: 6 or more miles (10+ km)
Ceiling: 3400 feet AGL
Clouds: few clouds at 1400 feet AGL
overcast cloud deck at 3400 feet AGL
Weather: -RA  (light rain)

METAR text: TBPB 220400Z 10010KT 9000 -SHRA FEW014 OVC034 24/23 Q1014 NOSIG
Conditions at: TBPB (GRANTLEY ADAMS , BB) observed 0400 UTC 22 March 2019
Temperature: 24.0°C (75°F)
Dewpoint: 23.0°C (73°F) [RH = 94%]
Pressure (altimeter): 29.94 inches Hg (1014.0 mb)
Winds: from the E (100 degrees) at 12 MPH (10 knots; 5.1 m/s)
Visibility: 6 miles ( 9 km)
Ceiling: 3400 feet AGL
Clouds: few clouds at 1400 feet AGL
overcast cloud deck at 3400 feet AGL
Weather: -SHRA  (light rain showers)

METAR text: TBPB 220300Z 07013KT 9999 FEW014 BKN034 25/22 Q1015 NOSIG
Conditions at: TBPB (GRANTLEY ADAMS , BB) observed 0300 UTC 22 March 2019
Temperature: 25.0°C (77°F)
Dewpoint: 22.0°C (72°F) [RH = 83%]
Pressure (altimeter): 29.97 inches Hg (1015.0 mb)
Winds: from the ENE (70 degrees) at 15 MPH (13 knots; 6.7 m/s)
Visibility: 6 or more miles (10+ km)
Ceiling: 3400 feet AGL
Clouds: few clouds at 1400 feet AGL
broken clouds at 3400 feet AGL
Weather: no significant weather observed at this time

METAR text: TBPB 220200Z 07008KT 9999 VCSH FEW014 BKN034 24/22 Q1015 NOSIG
Conditions at: TBPB (GRANTLEY ADAMS , BB) observed 0200 UTC 22 March 2019
Temperature: 24.0°C (75°F)
Dewpoint: 22.0°C (72°F) [RH = 89%]
Pressure (altimeter): 29.97 inches Hg (1015.0 mb)
Winds: from the ENE (70 degrees) at 9 MPH (8 knots; 4.1 m/s)
Visibility: 6 or more miles (10+ km)
Ceiling: 3400 feet AGL
Clouds: few clouds at 1400 feet AGL
broken clouds at 3400 feet AGL
Weather: VCSH  (showers in vicinity)

METAR text: TBPB 220100Z 10011KT 9999 FEW014 BKN034 24/22 Q1015 NOSIG
Conditions at: TBPB (GRANTLEY ADAMS , BB) observed 0100 UTC 22 March 2019
Temperature: 24.0°C (75°F)
Dewpoint: 22.0°C (72°F) [RH = 89%]
Pressure (altimeter): 29.97 inches Hg (1015.0 mb)
Winds: from the E (100 degrees) at 13 MPH (11 knots; 5.7 m/s)
Visibility: 6 or more miles (10+ km)
Ceiling: 3400 feet AGL
Clouds: few clouds at 1400 feet AGL
broken clouds at 3400 feet AGL
Weather: no significant weather observed at this time

METAR text: TBPB 220000Z 10017KT 9999 VCSH FEW014 BKN034 24/23 Q1014 NOSIG
Conditions at: TBPB (GRANTLEY ADAMS , BB) observed 0000 UTC 22 March 2019
Temperature: 24.0°C (75°F)
Dewpoint: 23.0°C (73°F) [RH = 94%]
Pressure (altimeter): 29.94 inches Hg (1014.0 mb)
Winds: from the E (100 degrees) at 20 MPH (17 knots; 8.7 m/s)
Visibility: 6 or more miles (10+ km)
Ceiling: 3400 feet AGL
Clouds: few clouds at 1400 feet AGL
broken clouds at 3400 feet AGL
Weather: VCSH  (showers in vicinity)

METAR text: TBPB 212300Z 13008KT 9999 FEW016 BKN034 25/22 Q1014 NOSIG
Conditions at: TBPB (GRANTLEY ADAMS , BB) observed 2300 UTC 21 March 2019
Temperature: 25.0°C (77°F)
Dewpoint: 22.0°C (72°F) [RH = 83%]
Pressure (altimeter): 29.94 inches Hg (1014.0 mb)
Winds: from the SE (130 degrees) at 9 MPH (8 knots; 4.1 m/s)
Visibility: 6 or more miles (10+ km)
Ceiling: 3400 feet AGL
Clouds: few clouds at 1600 feet AGL
broken clouds at 3400 feet AGL
Weather: no significant weather observed at this time

METAR text: TBPB 212200Z 09014KT 9999 FEW016 BKN034 26/22 Q1013 NOSIG
Conditions at: TBPB (GRANTLEY ADAMS , BB) observed 2200 UTC 21 March 2019
Temperature: 26.0°C (79°F)
Dewpoint: 22.0°C (72°F) [RH = 79%]
Pressure (altimeter): 29.91 inches Hg (1013.0 mb)
Winds: from the E (90 degrees) at 16 MPH (14 knots; 7.2 m/s)
Visibility: 6 or more miles (10+ km)
Ceiling: 3400 feet AGL
Clouds: few clouds at 1600 feet AGL
broken clouds at 3400 feet AGL
Weather: no significant weather observed at this time

METAR text: TBPB 212100Z 11017KT 9999 VCSH BKN016 SCT034 26/21 Q1012 NOSIG
Conditions at: TBPB (GRANTLEY ADAMS , BB) observed 2100 UTC 21 March 2019
Temperature: 26.0°C (79°F)
Dewpoint: 21.0°C (70°F) [RH = 74%]
Pressure (altimeter): 29.88 inches Hg (1012.0 mb)
Winds: from the ESE (110 degrees) at 20 MPH (17 knots; 8.7 m/s)
Visibility: 6 or more miles (10+ km)
Ceiling: 1600 feet AGL
Clouds: broken clouds at 1600 feet AGL
scattered clouds at 3400 feet AGL
Weather: VCSH  (showers in vicinity)

METAR text: TBPB 212000Z 10014KT 9999 VCSH SCT016 BKN034 27/21 Q1012 NOSIG
Conditions at: TBPB (GRANTLEY ADAMS , BB) observed 2000 UTC 21 March 2019
Temperature: 27.0°C (81°F)
Dewpoint: 21.0°C (70°F) [RH = 70%]
Pressure (altimeter): 29.88 inches Hg (1012.0 mb)
Winds: from the E (100 degrees) at 16 MPH (14 knots; 7.2 m/s)
Visibility: 6 or more miles (10+ km)
Ceiling: 3400 feet AGL
Clouds: scattered clouds at 1600 feet AGL
broken clouds at 3400 feet AGL
Weather: VCSH  (showers in vicinity)

METAR text: TBPB 211900Z 09016KT 9999 SCT020 SCT036 29/22 Q1013 NOSIG
Conditions at: TBPB (GRANTLEY ADAMS , BB) observed 1900 UTC 21 March 2019
Temperature: 29.0°C (84°F)
Dewpoint: 22.0°C (72°F) [RH = 66%]
Pressure (altimeter): 29.91 inches Hg (1013.0 mb)
Winds: from the E (90 degrees) at 18 MPH (16 knots; 8.2 m/s)
Visibility: 6 or more miles (10+ km)
Ceiling: at least 12,000 feet AGL
Clouds: scattered clouds at 2000 feet AGL
scattered clouds at 3600 feet AGL
Weather: no significant weather observed at this time

METAR text: TBPB 211800Z 10013KT 9999 SCT020 29/21 Q1013 NOSIG
Conditions at: TBPB (GRANTLEY ADAMS , BB) observed 1800 UTC 21 March 2019
Temperature: 29.0°C (84°F)
Dewpoint: 21.0°C (70°F) [RH = 62%]
Pressure (altimeter): 29.91 inches Hg (1013.0 mb)
Winds: from the E (100 degrees) at 15 MPH (13 knots; 6.7 m/s)
Visibility: 6 or more miles (10+ km)
Ceiling: at least 12,000 feet AGL
Clouds: scattered clouds at 2000 feet AGL
Weather: no significant weather observed at this time

METAR text: TBPB 211700Z 11012KT 9999 SCT018 SCT034 28/21 Q1014 NOSIG
Conditions at: TBPB (GRANTLEY ADAMS , BB) observed 1700 UTC 21 March 2019
Temperature: 28.0°C (82°F)
Dewpoint: 21.0°C (70°F) [RH = 66%]
Pressure (altimeter): 29.94 inches Hg (1014.0 mb)
Winds: from the ESE (110 degrees) at 14 MPH (12 knots; 6.2 m/s)
Visibility: 6 or more miles (10+ km)
Ceiling: at least 12,000 feet AGL
Clouds: scattered clouds at 1800 feet AGL
scattered clouds at 3400 feet AGL
Weather: no significant weather observed at this time

METAR text: TBPB 211600Z 10012KT 9999 FEW018 BKN034 28/21 Q1015 NOSIG
Conditions at: TBPB (GRANTLEY ADAMS , BB) observed 1600 UTC 21 March 2019
Temperature: 28.0°C (82°F)
Dewpoint: 21.0°C (70°F) [RH = 66%]
Pressure (altimeter): 29.97 inches Hg (1015.0 mb)
Winds: from the E (100 degrees) at 14 MPH (12 knots; 6.2 m/s)
Visibility: 6 or more miles (10+ km)
Ceiling: 3400 feet AGL
Clouds: few clouds at 1800 feet AGL
broken clouds at 3400 feet AGL
Weather: no significant weather observed at this time

METAR text: TBPB 211500Z 10011KT 9999 FEW020 SCT036 28/21 Q1015 NOSIG
Conditions at: TBPB (GRANTLEY ADAMS , BB) observed 1500 UTC 21 March 2019
Temperature: 28.0°C (82°F)
Dewpoint: 21.0°C (70°F) [RH = 66%]
Pressure (altimeter): 29.97 inches Hg (1015.0 mb)
Winds: from the E (100 degrees) at 13 MPH (11 knots; 5.7 m/s)
Visibility: 6 or more miles (10+ km)
Ceiling: at least 12,000 feet AGL
Clouds: few clouds at 2000 feet AGL
scattered clouds at 3600 feet AGL
Weather: no significant weather observed at this time

METAR text: TBPB 211400Z 08012KT 9999 VCSH FEW018 BKN038 27/20 Q1016 NOSIG
Conditions at: TBPB (GRANTLEY ADAMS , BB) observed 1400 UTC 21 March 2019
Temperature: 27.0°C (81°F)
Dewpoint: 20.0°C (68°F) [RH = 66%]
Pressure (altimeter): 30.00 inches Hg (1016.0 mb)
Winds: from the E (80 degrees) at 14 MPH (12 knots; 6.2 m/s)
Visibility: 6 or more miles (10+ km)
Ceiling: 3800 feet AGL
Clouds: few clouds at 1800 feet AGL
broken clouds at 3800 feet AGL
Weather: VCSH  (showers in vicinity)

METAR text: TBPB 211300Z 10012KT 9999 FEW020 BKN038 28/20 Q1016 NOSIG
Conditions at: TBPB (GRANTLEY ADAMS , BB) observed 1300 UTC 21 March 2019
Temperature: 28.0°C (82°F)
Dewpoint: 20.0°C (68°F) [RH = 62%]
Pressure (altimeter): 30.00 inches Hg (1016.0 mb)
Winds: from the E (100 degrees) at 14 MPH (12 knots; 6.2 m/s)
Visibility: 6 or more miles (10+ km)
Ceiling: 3800 feet AGL
Clouds: few clouds at 2000 feet AGL
broken clouds at 3800 feet AGL
Weather: no significant weather observed at this time

Forecast for: TBPB (GRANTLEY ADAMS , BB)
Text: TAF TBPB 222300Z 2300/2324 10018KT 9999 SCT018
Forecast period: 0000 UTC 23 March 2019 to 0000 UTC 24 March 2019
Forecast type: FROM: standard forecast or significant change
Winds: from the E (100 degrees) at 21 MPH (18 knots; 9.3 m/s)
Visibility: 6 or more miles 10+ km)
Ceiling: at least 12,000 feet AGL
Clouds: scattered clouds at 1800 feet AGL
Weather: no significant weather forecast for this period